• Join FlightAware (Why Join?)
  • Login
  • US Flag 
12:50AM EDT


 

Airport Tracker/Info


-or-


 

Live Flight TrackerFlight Track Log ✈ N693PD ✈ 10-May-2013 ✈ KRYY - KDZB

Flight Track Log - Related Links

Times and Time Zones

All times are in EDT time to prevent confusion due to time zone crossing. See the N693PD flight status page for this flight to view local times or setup timezone preferences in your user account.

Time Position Orientation Groundspeed Altitude Reporting Facility
EDT Latitude Longitude Course Direction KTS MPH feet Rate Location/Type
03:16PM 34.0167 -84.6667 234° Southwest 139 160 3,000  Level Atlanta TRACON
03:17PM 34.0000 -84.7000 239° Southwest 151 174 4,400 1,560 Climbing Atlanta TRACON
03:18PM 33.9833 -84.7500 248° West 143 165 6,200 1,560 Climbing Atlanta TRACON
03:19PM 33.9667 -84.7833 239° Southwest 135 155 7,600 1,380 Climbing Atlanta TRACON
03:20PM 33.9333 -84.8167 220° Southwest 144 166 8,900 660 Climbing Atlanta TRACON
03:21PM 33.9167 -84.8667 248° West 187 215 9,000  Climbing Atlanta TRACON
03:22PM 33.8173 -84.9379 234° Southwest  Level FlightAware Approximate
03:22PM 33.8833 -84.9333 239° Southwest 215 247 9,000  Level Atlanta TRACON
03:23PM 33.8428 -85.0042 235° Southwest 210 242 9,000 360 Level Atlanta Center
03:24PM 33.8108 -85.0589 235° Southwest 210 242 9,800 900 Climbing Atlanta Center
03:25PM 33.8083 -85.1264 267° West 197 227 10,800 600 Climbing Atlanta Center
03:26PM 33.8033 -85.1964 265° West 202 232 11,000 60 Climbing Atlanta Center
03:27PM 33.8006 -85.2714 267° West 222 255 11,000 480 Level Atlanta Center
03:28PM 33.7958 -85.3436 266° West 222 255 12,000 900 Climbing Atlanta Center
03:29PM 33.7908 -85.4011 264° West 216 249 12,900 960 Climbing Atlanta Center
03:30PM 33.7861 -85.4636 265° West 201 231 14,000 1,020 Climbing Atlanta Center
03:31PM 33.7811 -85.5233 264° West 189 217 15,000 900 Climbing Atlanta Center
03:32PM 33.7761 -85.5858 265° West 189 217 15,900 480 Climbing Atlanta Center
03:33PM 33.7711 -85.6506 265° West 198 228 16,000 420 Climbing Atlanta Center
03:34PM 33.7661 -85.7206 265° West 203 234 16,800 900 Climbing Atlanta Center
03:35PM 33.7611 -85.7878 265° West 203 234 17,800 840 Climbing Atlanta Center
03:36PM 33.7561 -85.8453 264° West 182 209 18,500 780 Climbing Atlanta Center
03:37PM 33.7489 -85.9050 262° West 182 209 19,400 720 Climbing Atlanta Center
03:38PM 33.7436 -85.9650 264° West 182 209 20,000 300 Climbing Atlanta Center
03:39PM 33.7428 -86.0322 269° West 187 215 20,000  Level Atlanta Center
03:40PM 33.7331 -86.1094 261° West 213 245 20,000  Level Atlanta Center
03:41PM 33.7275 -86.1894 265° West 232 267 20,000  Level Atlanta Center
03:42PM 33.7219 -86.2642 265° West 238 274 20,000  Level Atlanta Center
03:43PM 33.7122 -86.3464 262° West 238 274 20,000  Level Atlanta Center
03:44PM 33.7044 -86.4211 263° West 238 274 20,000  Level Atlanta Center
03:45PM 33.6989 -86.4958 265° West 238 274 20,000  Level Atlanta Center
03:46PM 33.6908 -86.5756 263° West 238 274 20,000  Level Atlanta Center
03:47PM 33.6831 -86.6525 263° West 238 274 20,000  Level Atlanta Center
03:48PM 33.6750 -86.7322 263° West 238 274 20,000  Level Atlanta Center
03:49PM 33.6672 -86.8069 263° West 238 274 20,000  Level Atlanta Center
03:50PM 33.6611 -86.8839 265° West 238 274 20,000  Level Atlanta Center
03:51PM 33.6531 -86.9611 263° West 238 274 20,000  Level Atlanta Center
03:52PM 33.6450 -87.0356 263° West 238 274 20,000  Level Atlanta Center
03:53PM 33.6369 -87.1128 263° West 238 274 20,000  Level Atlanta Center
03:54PM 33.6289 -87.1847 262° West 238 274 20,000  Level Atlanta Center
03:55PM 33.6228 -87.2619 265° West 238 274 20,000  Level Atlanta Center
03:57PM 33.6089 -87.3842 262° West 228 262 20,000  Level Memphis Center
03:58PM 33.6042 -87.4417 264° West 228 262 20,000  Level Memphis Center
03:59PM 33.5953 -87.5092 261° West 228 262 20,000  Level Memphis Center
04:00PM 33.5869 -87.5994 264° West 231 266 20,000  Level Memphis Center
04:01PM 33.5783 -87.6869 263° West 232 267 20,000  Level Memphis Center
04:02PM 33.5675 -87.7694 261° West 230 265 20,000  Level Memphis Center
04:03PM 33.5628 -87.8369 265° West 228 262 20,000  Level Memphis Center
04:04PM 33.5517 -87.9169 261° West 229 264 20,000  Level Memphis Center
04:05PM 33.5447 -87.9869 263° West 229 264 20,000  Level Memphis Center
04:06PM 33.5378 -88.0544 263° West 230 265 20,000  Level Memphis Center
04:07PM 33.5286 -88.1294 262° West 232 267 20,000  Level Memphis Center
04:08PM 33.5178 -88.2194 262° West 233 268 20,000  Level Memphis Center
04:09PM 33.5086 -88.2944 262° West 230 265 20,000  Level Memphis Center
04:10PM 33.5014 -88.3742 264° West 228 262 20,000  Level Memphis Center
04:11PM 33.4903 -88.4617 261° West 226 260 20,000  Level Memphis Center
04:12PM 33.4853 -88.5364 265° West 226 260 20,000  Level Memphis Center
04:13PM 33.4842 -88.6111 269° West 226 260 20,000  Level Memphis Center
04:14PM 33.4850 -88.6786 271° West 225 259 20,000  Level Memphis Center
04:15PM 33.4839 -88.7533 269° West 225 259 20,000  Level Memphis Center
04:16PM 33.4850 -88.8253 271° West 225 259 20,000  Level Memphis Center
04:17PM 33.4839 -88.9125 269° West 244 281 20,000  Level Memphis Center
04:18PM 33.4828 -88.9897 269° West 250 288 20,000  Level Memphis Center
04:19PM 33.4833 -89.0619 271° West 245 282 20,000  Level Memphis Center
04:20PM 33.4800 -89.1369 267° West 228 262 20,000  Level Memphis Center
04:21PM 33.4808 -89.2117 271° West 228 262 20,000  Level Memphis Center
04:22PM 33.4792 -89.2839 268° West 228 262 20,000  Level Memphis Center
04:23PM 33.4778 -89.3611 269° West 228 262 20,000  Level Memphis Center
04:24PM 33.4764 -89.4358 269° West 233 268 20,000  Level Memphis Center
04:25PM 33.4747 -89.5106 268° West 233 268 20,000  Level Memphis Center
04:26PM 33.4753 -89.5853 271° West 233 268 20,000  Level Memphis Center
04:27PM 33.4736 -89.6675 269° West 233 268 20,000  Level Memphis Center
04:28PM 33.4719 -89.7397 268° West 233 268 20,000  Level Memphis Center
04:29PM 33.4722 -89.8119 270° West 228 262 20,000  Level Memphis Center
04:30PM 33.4706 -89.8842 268° West 228 262 20,000  Level Memphis Center
04:31PM 33.4686 -89.9564 268° West 228 262 20,000  Level Memphis Center
04:32PM 33.4667 -90.0261 268° West 223 257 20,000  Level Memphis Center
04:33PM 33.4397 -90.0908 244° Southwest 212 244 20,000  Level Memphis Center
04:34PM 33.4086 -90.1506 238° Southwest 212 244 20,000  Level Memphis Center
04:35PM 33.3775 -90.2131 239° Southwest 223 257 20,000  Level Memphis Center
04:36PM 33.3503 -90.2753 242° Southwest 223 257 20,000  Level Memphis Center
04:37PM 33.3211 -90.3372 241° Southwest 223 257 20,000  Level Memphis Center
04:38PM 33.2919 -90.3994 241° Southwest 223 257 20,000  Level Memphis Center
04:39PM 33.2647 -90.4567 240° Southwest 223 257 20,000  Level Memphis Center
04:40PM 33.2375 -90.5186 242° Southwest 218 251 20,000  Level Memphis Center
04:41PM 33.2083 -90.5783 240° Southwest 218 251 20,000  Level Memphis Center
04:42PM 33.1789 -90.6403 240° Southwest 218 251 20,000  Level Memphis Center
04:43PM 33.1517 -90.7022 242° Southwest 218 251 20,000  Level Memphis Center
04:44PM 33.1242 -90.7617 241° Southwest 218 251 20,000  Level Memphis Center
04:45PM 33.0950 -90.8233 241° Southwest 218 251 20,000  Level Memphis Center
04:46PM 33.0653 -90.8803 238° Southwest 218 251 20,000  Level Memphis Center
04:47PM 33.0381 -90.9397 241° Southwest 218 251 20,000  Level Memphis Center
04:48PM 33.0106 -90.9989 241° Southwest 213 245 20,000  Level Memphis Center
04:49PM 32.9853 -91.0606 244° Southwest 213 245 20,000  Level Memphis Center
04:50PM 32.9661 -91.1272 251° West 208 239 20,000  Level Memphis Center
04:51PM 32.9489 -91.1892 252° West 208 239 20,000  Level Memphis Center
04:52PM 32.9297 -91.2508 250° West 208 239 20,000 -240 Level Memphis Center
04:53PM 32.9106 -91.3150 250° West 208 239 19,600 -480 Descending Memphis Center
04:54PM 32.8889 -91.3889 251° West 208 239 19,100 -540 Descending Memphis Center
04:56PM 32.8572 -91.5008 251° West 215 247 18,300 -420 Descending Fort Worth Center
04:57PM 32.8375 -91.5714 252° West 226 260 18,000 -180 Descending Fort Worth Center
04:58PM 32.8133 -91.6322 245° Southwest 219 252 18,000  Level Fort Worth Center
04:59PM 32.7956 -91.7003 253° West 214 246 18,000  Level Fort Worth Center
05:00PM 32.7753 -91.7633 249° West 214 246 18,000  Level Fort Worth Center
05:01PM 32.7594 -91.8283 254° West 209 241 18,000  Level Fort Worth Center
05:02PM 32.7372 -91.8939 248° West 209 241 18,000  Level Fort Worth Center
05:03PM 32.7192 -91.9569 251° West 209 241 18,000  Level Fort Worth Center
05:04PM 32.7011 -92.0197 251° West 209 241 18,000  Level Fort Worth Center
05:05PM 32.6767 -92.0853 246° West 214 246 18,000  Level Fort Worth Center
05:06PM 32.6586 -92.1506 252° West 214 246 18,000  Level Fort Worth Center
05:07PM 32.6361 -92.2133 247° West 225 259 18,000  Level Fort Worth Center
05:08PM 32.6158 -92.2786 250° West 225 259 18,000  Level Fort Worth Center
05:09PM 32.5958 -92.3489 251° West 220 253 18,000  Level Fort Worth Center
05:10PM 32.5733 -92.4142 248° West 220 253 18,000  Level Fort Worth Center
05:11PM 32.5550 -92.4794 252° West 220 253 18,000  Level Fort Worth Center
05:12PM 32.5367 -92.5444 252° West 213 245 18,000  Level Fort Worth Center
05:14PM 32.4917 -92.6797 249° West 218 251 18,000  Level Fort Worth Center
05:15PM 32.4692 -92.7475 249° West 218 251 18,000  Level Fort Worth Center
05:16PM 32.4428 -92.8228 247° West 238 274 18,000  Level Fort Worth Center
05:17PM 32.4183 -92.8978 249° West 233 268 18,000  Level Fort Worth Center
05:18PM 32.3997 -92.9578 250° West 233 268 18,000  Level Fort Worth Center
05:19PM 32.3753 -93.0328 249° West 227 261 18,000  Level Fort Worth Center
05:20PM 32.3564 -93.0925 249° West 227 261 18,000  Level Fort Worth Center
05:21PM 32.3339 -93.1650 250° West 222 255 18,000  Level Fort Worth Center
05:22PM 32.3147 -93.2222 248° West 215 247 18,000  Level Fort Worth Center
05:23PM 32.2922 -93.2947 250° West 215 247 18,000  Level Fort Worth Center
05:24PM 32.2733 -93.3544 250° West 215 247 18,000  Level Fort Worth Center
05:25PM 32.2525 -93.4267 251° West 215 247 18,000  Level Fort Worth Center
05:26PM 32.2314 -93.4842 247° West 215 247 18,000  Level Fort Worth Center
05:27PM 32.2086 -93.5539 249° West 215 247 18,000  Level Fort Worth Center
05:28PM 32.1875 -93.6183 249° West 215 247 18,000  Level Fort Worth Center
05:29PM 32.1686 -93.6831 251° West 215 247 18,000  Level Fort Worth Center
05:30PM 32.1456 -93.7478 247° West 215 247 18,000  Level Fort Worth Center
05:31PM 32.1264 -93.8122 251° West 215 247 18,000  Level Fort Worth Center
05:32PM 32.1053 -93.8769 249° West 215 247 18,000  Level Fort Worth Center
05:33PM 32.0819 -93.9417 247° West 215 247 18,000 -300 Level Fort Worth Center
05:34PM 32.0608 -94.0086 250° West 215 247 17,400 -960 Descending Fort Worth Center
05:35PM 32.0358 -94.0856 249° West 237 273 16,100 -720 Descending Fort Worth Center
05:36PM 32.0128 -94.1572 249° West 237 273 16,000 -60 Descending Fort Worth Center
05:37PM 31.9894 -94.2267 248° West 237 273 16,000  Level Fort Worth Center
05:38PM 31.9661 -94.2986 249° West 237 273 16,000  Level Fort Worth Center
05:39PM 31.9447 -94.3581 247° West 232 267 16,000  Level Fort Worth Center
05:40PM 31.9214 -94.4322 250° West 232 267 16,000  Level Fort Worth Center
05:41PM 31.9000 -94.4989 249° West 232 267 16,000  Level Fort Worth Center
05:42PM 31.8744 -94.5658 246° West 232 267 16,000  Level Fort Worth Center
05:43PM 31.8528 -94.6350 250° West 232 267 16,000  Level Fort Worth Center
05:44PM 31.8294 -94.7042 248° West 232 267 16,000  Level Fort Worth Center
05:45PM 31.8078 -94.7708 249° West 232 267 16,000  Level Fort Worth Center
05:46PM 31.7822 -94.8400 247° West 232 267 16,000  Level Fort Worth Center
05:47PM 31.7586 -94.9114 249° West 232 267 16,000  Level Fort Worth Center
05:48PM 31.7347 -94.9831 249° West 232 267 16,000  Level Fort Worth Center
05:50PM 31.6833 -95.1328 248° West 228 262 16,000  Level Houston Center
05:51PM 31.6603 -95.2017 249° West 228 262 16,000  Level Houston Center
05:52PM 31.6375 -95.2692 248° West 224 258 16,000  Level Houston Center
05:54PM 31.6128 -95.3386 247° West 229 264 16,000  Level Houston Center
05:55PM 31.5839 -95.4206 248° West 227 261 16,000  Level Houston Center
05:56PM 31.5608 -95.4878 248° West 224 258 16,000  Level Houston Center
05:57PM 31.5369 -95.5558 248° West 225 259 16,000  Level Houston Center
05:58PM 31.5139 -95.6239 248° West 226 260 16,000  Level Houston Center
05:59PM 31.4903 -95.6911 248° West 224 258 16,000  Level Houston Center
06:00PM 31.4631 -95.7717 248° West 223 257 16,000  Level Houston Center
06:01PM 31.4397 -95.8381 248° West 221 254 16,000  Level Houston Center
06:02PM 31.4164 -95.9056 248° West 223 257 16,000  Level Houston Center
06:03PM 31.3931 -95.9719 248° West 222 255 16,000  Level Houston Center
06:04PM 31.3700 -96.0367 247° West 218 251 16,000  Level Houston Center
06:05PM 31.3439 -96.1122 248° West 222 255 16,000  Level Houston Center
06:06PM 31.3197 -96.1800 247° West 223 257 16,000  Level Houston Center
06:07PM 31.2964 -96.2472 248° West 222 255 16,000  Level Houston Center
06:08PM 31.2728 -96.3150 248° West 223 257 16,000  Level Houston Center
06:09PM 31.2489 -96.3825 248° West 222 255 16,000  Level Houston Center
06:10PM 31.2250 -96.4500 248° West 223 257 16,000  Level Houston Center
06:11PM 31.2006 -96.5175 247° West 223 257 16,000  Level Houston Center
06:12PM 31.1722 -96.5956 247° West 222 255 16,000  Level Houston Center
06:13PM 31.1483 -96.6633 248° West 223 257 16,000  Level Houston Center
06:14PM 31.1242 -96.7306 247° West 223 257 16,000  Level Houston Center
06:15PM 31.1006 -96.7969 247° West 220 253 16,000  Level Houston Center
06:16PM 31.0767 -96.8633 247° West 219 252 16,000  Level Houston Center
06:17PM 31.0525 -96.9308 247° West 223 257 16,000  Level Houston Center
06:18PM 31.0281 -96.9989 247° West 224 258 16,000  Level Houston Center
06:19PM 30.9992 -97.0789 247° West 226 260 16,000  Level Houston Center
06:20PM 30.9742 -97.1475 247° West 227 261 16,000  Level Houston Center
06:21PM 30.9481 -97.2181 247° West 227 261 16,000  Level Houston Center
06:22PM 30.9222 -97.2881 247° West 232 267 16,000  Level Houston Center
06:24PM 30.8958 -97.3606 247° West 230 265 16,000 -480 Level Houston Center
06:25PM 30.8700 -97.4325 247° West 237 273 15,000 -1,020 Descending Houston Center
06:26PM 30.8433 -97.5069 247° West 246 283 14,000 -1,020 Descending Houston Center
06:27PM 30.8253 -97.5856 255° West 247 284 12,900 -1,260 Descending Houston Center
06:28PM 30.8078 -97.6647 256° West 249 287 11,400 -1,440 Descending Houston Center
06:29PM 30.7889 -97.7436 254° West 251 289 10,000 -1,500 Descending Houston Center
06:30PM 30.7697 -97.8211 254° West 248 285 8,400 -1,920 Descending Houston Center
06:31PM 30.7481 -97.9017 253° West 228 262 6,100 -2,040 Descending Houston Center
06:32PM 30.7317 -97.9719 255° West 224 258 4,300 -1,020 Descending Houston Center
06:33PM 30.7192 -98.0414 258° West 221 254 4,100 -120 Descending Houston Center
06:34PM 30.7075 -98.1067 258° West 212 244 4,100  Level Houston Center
06:35PM 30.6900 -98.1681 252° West 204 235 4,100  Level Houston Center
06:36PM 30.6725 -98.2203 249° West 186 214 4,100  Level Houston Center
06:37PM 30.6519 -98.2672 243° Southwest 170 196 4,100 -300 Level Houston Center
06:38PM 30.6142 -98.3053 221° Southwest 157 181 3,500 -600 Descending Houston Center